sensor_id;sensor_type;location;lat;lon;timestamp;P1;durP1;ratioP1;P2;durP2;ratioP2
37299;SDS011;23184;51.902;12.836;2023-02-15T00:00:15;60.08;;;23.08;;
37299;SDS011;23184;51.902;12.836;2023-02-15T00:02:41;64.40;;;23.98;;
37299;SDS011;23184;51.902;12.836;2023-02-15T00:05:07;60.17;;;22.63;;
37299;SDS011;23184;51.902;12.836;2023-02-15T00:07:33;64.05;;;25.65;;
37299;SDS011;23184;51.902;12.836;2023-02-15T00:09:59;66.38;;;24.77;;
37299;SDS011;23184;51.902;12.836;2023-02-15T00:12:25;66.30;;;24.83;;
37299;SDS011;23184;51.902;12.836;2023-02-15T00:14:50;73.05;;;24.80;;
37299;SDS011;23184;51.902;12.836;2023-02-15T00:17:16;68.95;;;24.48;;
37299;SDS011;23184;51.902;12.836;2023-02-15T00:19:41;69.03;;;25.13;;
37299;SDS011;23184;51.902;12.836;2023-02-15T00:22:07;62.25;;;23.70;;
37299;SDS011;23184;51.902;12.836;2023-02-15T00:24:32;74.40;;;25.48;;
37299;SDS011;23184;51.902;12.836;2023-02-15T00:26:58;58.72;;;23.30;;
37299;SDS011;23184;51.902;12.836;2023-02-15T00:29:24;60.03;;;25.33;;
37299;SDS011;23184;51.902;12.836;2023-02-15T00:31:50;65.10;;;24.98;;
37299;SDS011;23184;51.902;12.836;2023-02-15T00:34:21;60.03;;;24.05;;
37299;SDS011;23184;51.902;12.836;2023-02-15T00:36:48;64.15;;;24.83;;
37299;SDS011;23184;51.902;12.836;2023-02-15T00:39:14;64.13;;;23.85;;
37299;SDS011;23184;51.902;12.836;2023-02-15T00:41:40;64.18;;;23.48;;
37299;SDS011;23184;51.902;12.836;2023-02-15T00:44:06;62.30;;;23.73;;
37299;SDS011;23184;51.902;12.836;2023-02-15T00:46:32;63.72;;;23.30;;
37299;SDS011;23184;51.902;12.836;2023-02-15T00:48:58;55.45;;;23.45;;
37299;SDS011;23184;51.902;12.836;2023-02-15T00:51:23;59.55;;;23.73;;
37299;SDS011;23184;51.902;12.836;2023-02-15T00:53:49;61.15;;;22.80;;
37299;SDS011;23184;51.902;12.836;2023-02-15T00:56:15;59.63;;;23.95;;
37299;SDS011;23184;51.902;12.836;2023-02-15T00:58:40;62.58;;;25.02;;
37299;SDS011;23184;51.902;12.836;2023-02-15T01:01:07;57.60;;;23.02;;
37299;SDS011;23184;51.902;12.836;2023-02-15T01:03:34;68.60;;;24.70;;
37299;SDS011;23184;51.902;12.836;2023-02-15T01:06:01;65.35;;;25.58;;
37299;SDS011;23184;51.902;12.836;2023-02-15T01:08:27;69.15;;;25.25;;
37299;SDS011;23184;51.902;12.836;2023-02-15T01:10:52;56.50;;;21.63;;
37299;SDS011;23184;51.902;12.836;2023-02-15T01:13:18;60.00;;;23.45;;
37299;SDS011;23184;51.902;12.836;2023-02-15T01:15:44;71.75;;;26.30;;
37299;SDS011;23184;51.902;12.836;2023-02-15T01:18:10;69.30;;;26.60;;
37299;SDS011;23184;51.902;12.836;2023-02-15T01:20:37;83.05;;;27.88;;
37299;SDS011;23184;51.902;12.836;2023-02-15T01:23:06;76.97;;;26.38;;
37299;SDS011;23184;51.902;12.836;2023-02-15T01:25:32;81.13;;;26.23;;
37299;SDS011;23184;51.902;12.836;2023-02-15T01:27:59;74.35;;;26.10;;
37299;SDS011;23184;51.902;12.836;2023-02-15T01:30:25;75.30;;;26.52;;
37299;SDS011;23184;51.902;12.836;2023-02-15T01:32:50;73.55;;;27.88;;
37299;SDS011;23184;51.902;12.836;2023-02-15T01:35:16;73.05;;;25.83;;
37299;SDS011;23184;51.902;12.836;2023-02-15T01:37:41;72.97;;;26.45;;
37299;SDS011;23184;51.902;12.836;2023-02-15T01:40:08;69.65;;;26.67;;
37299;SDS011;23184;51.902;12.836;2023-02-15T01:42:39;86.80;;;26.00;;
37299;SDS011;23184;51.902;12.836;2023-02-15T01:47:44;80.03;;;27.88;;
37299;SDS011;23184;51.902;12.836;2023-02-15T01:50:12;87.65;;;26.63;;
37299;SDS011;23184;51.902;12.836;2023-02-15T01:55:47;79.15;;;24.70;;
37299;SDS011;23184;51.902;12.836;2023-02-15T01:58:17;176.52;;;32.20;;
37299;SDS011;23184;51.902;12.836;2023-02-15T02:00:43;70.35;;;23.85;;
37299;SDS011;23184;51.902;12.836;2023-02-15T02:03:09;82.07;;;27.88;;
37299;SDS011;23184;51.902;12.836;2023-02-15T02:05:35;84.75;;;28.70;;
37299;SDS011;23184;51.902;12.836;2023-02-15T02:08:03;87.25;;;30.35;;
37299;SDS011;23184;51.902;12.836;2023-02-15T02:13:51;74.20;;;25.00;;
37299;SDS011;23184;51.902;12.836;2023-02-15T02:16:25;68.20;;;23.15;;
37299;SDS011;23184;51.902;12.836;2023-02-15T02:19:14;92.53;;;29.45;;
37299;SDS011;23184;51.902;12.836;2023-02-15T02:22:06;84.55;;;28.90;;
37299;SDS011;23184;51.902;12.836;2023-02-15T02:24:40;80.25;;;27.02;;
37299;SDS011;23184;51.902;12.836;2023-02-15T02:30:19;66.00;;;24.80;;
37299;SDS011;23184;51.902;12.836;2023-02-15T02:46:58;81.70;;;26.80;;
37299;SDS011;23184;51.902;12.836;2023-02-15T02:49:32;96.70;;;29.13;;
37299;SDS011;23184;51.902;12.836;2023-02-15T02:52:03;84.65;;;27.65;;
37299;SDS011;23184;51.902;12.836;2023-02-15T02:54:31;76.72;;;25.95;;
37299;SDS011;23184;51.902;12.836;2023-02-15T02:56:59;71.20;;;24.85;;
37299;SDS011;23184;51.902;12.836;2023-02-15T02:59:30;75.97;;;27.05;;
37299;SDS011;23184;51.902;12.836;2023-02-15T03:02:07;90.55;;;26.02;;
37299;SDS011;23184;51.902;12.836;2023-02-15T03:04:39;86.03;;;24.52;;
37299;SDS011;23184;51.902;12.836;2023-02-15T03:07:14;116.90;;;34.25;;
37299;SDS011;23184;51.902;12.836;2023-02-15T03:09:48;87.60;;;27.42;;
37299;SDS011;23184;51.902;12.836;2023-02-15T03:12:17;101.88;;;31.65;;
37299;SDS011;23184;51.902;12.836;2023-02-15T03:14:47;148.30;;;35.25;;
37299;SDS011;23184;51.902;12.836;2023-02-15T03:17:16;91.63;;;29.20;;
37299;SDS011;23184;51.902;12.836;2023-02-15T03:19:45;122.38;;;30.67;;
37299;SDS011;23184;51.902;12.836;2023-02-15T03:22:14;315.67;;;38.58;;
37299;SDS011;23184;51.902;12.836;2023-02-15T03:24:47;387.50;;;36.03;;
37299;SDS011;23184;51.902;12.836;2023-02-15T03:27:22;317.75;;;31.67;;
37299;SDS011;23184;51.902;12.836;2023-02-15T03:29:52;288.65;;;28.63;;
37299;SDS011;23184;51.902;12.836;2023-02-15T03:32:20;149.40;;;27.00;;
37299;SDS011;23184;51.902;12.836;2023-02-15T03:34:47;166.25;;;28.42;;
37299;SDS011;23184;51.902;12.836;2023-02-15T03:37:22;103.75;;;22.45;;
37299;SDS011;23184;51.902;12.836;2023-02-15T03:40:03;134.85;;;25.25;;
37299;SDS011;23184;51.902;12.836;2023-02-15T03:42:49;47.85;;;18.17;;
37299;SDS011;23184;51.902;12.836;2023-02-15T03:45:23;60.63;;;20.10;;
37299;SDS011;23184;51.902;12.836;2023-02-15T03:47:52;100.45;;;25.88;;
37299;SDS011;23184;51.902;12.836;2023-02-15T03:50:22;124.13;;;28.65;;
37299;SDS011;23184;51.902;12.836;2023-02-15T03:53:11;110.93;;;26.67;;
37299;SDS011;23184;51.902;12.836;2023-02-15T03:55:40;79.70;;;26.58;;
37299;SDS011;23184;51.902;12.836;2023-02-15T03:58:06;85.53;;;28.33;;
37299;SDS011;23184;51.902;12.836;2023-02-15T04:04:22;95.55;;;30.48;;
37299;SDS011;23184;51.902;12.836;2023-02-15T04:06:57;90.95;;;30.08;;
37299;SDS011;23184;51.902;12.836;2023-02-15T04:09:22;96.72;;;31.80;;
37299;SDS011;23184;51.902;12.836;2023-02-15T04:12:07;84.60;;;28.65;;
37299;SDS011;23184;51.902;12.836;2023-02-15T04:14:32;92.75;;;28.17;;
37299;SDS011;23184;51.902;12.836;2023-02-15T04:19:41;56.88;;;21.58;;
37299;SDS011;23184;51.902;12.836;2023-02-15T04:22:26;59.40;;;21.83;;
37299;SDS011;23184;51.902;12.836;2023-02-15T04:25:10;67.10;;;25.02;;
37299;SDS011;23184;51.902;12.836;2023-02-15T04:27:39;77.25;;;25.70;;
37299;SDS011;23184;51.902;12.836;2023-02-15T04:30:09;55.50;;;23.48;;
37299;SDS011;23184;51.902;12.836;2023-02-15T04:32:36;52.70;;;22.55;;
37299;SDS011;23184;51.902;12.836;2023-02-15T04:35:03;54.40;;;21.60;;
37299;SDS011;23184;51.902;12.836;2023-02-15T04:37:30;55.30;;;21.05;;
37299;SDS011;23184;51.902;12.836;2023-02-15T04:39:56;58.97;;;22.23;;
37299;SDS011;23184;51.902;12.836;2023-02-15T04:42:23;63.65;;;24.27;;
37299;SDS011;23184;51.902;12.836;2023-02-15T04:44:50;61.35;;;22.50;;
37299;SDS011;23184;51.902;12.836;2023-02-15T04:47:15;57.85;;;21.83;;
37299;SDS011;23184;51.902;12.836;2023-02-15T04:49:41;54.08;;;21.77;;
37299;SDS011;23184;51.902;12.836;2023-02-15T04:52:06;50.53;;;21.02;;
37299;SDS011;23184;51.902;12.836;2023-02-15T04:54:32;58.92;;;22.05;;
37299;SDS011;23184;51.902;12.836;2023-02-15T04:56:57;49.45;;;20.88;;
37299;SDS011;23184;51.902;12.836;2023-02-15T04:59:22;49.28;;;19.58;;
37299;SDS011;23184;51.902;12.836;2023-02-15T05:01:48;52.75;;;22.38;;
37299;SDS011;23184;51.902;12.836;2023-02-15T05:04:13;48.22;;;19.92;;
37299;SDS011;23184;51.902;12.836;2023-02-15T05:06:39;49.42;;;21.35;;
37299;SDS011;23184;51.902;12.836;2023-02-15T05:09:04;51.28;;;21.33;;
37299;SDS011;23184;51.902;12.836;2023-02-15T05:11:30;46.80;;;20.02;;
37299;SDS011;23184;51.902;12.836;2023-02-15T05:13:55;60.85;;;25.85;;
37299;SDS011;23184;51.902;12.836;2023-02-15T05:16:21;56.00;;;22.35;;
37299;SDS011;23184;51.902;12.836;2023-02-15T05:18:46;64.10;;;25.08;;
37299;SDS011;23184;51.902;12.836;2023-02-15T05:21:12;65.03;;;24.92;;
37299;SDS011;23184;51.902;12.836;2023-02-15T05:23:38;75.68;;;27.25;;
37299;SDS011;23184;51.902;12.836;2023-02-15T05:26:04;84.05;;;29.40;;
37299;SDS011;23184;51.902;12.836;2023-02-15T05:28:48;96.45;;;27.00;;
37299;SDS011;23184;51.902;12.836;2023-02-15T05:31:14;83.03;;;26.45;;
37299;SDS011;23184;51.902;12.836;2023-02-15T05:33:44;71.85;;;25.02;;
37299;SDS011;23184;51.902;12.836;2023-02-15T05:36:10;69.85;;;24.27;;
37299;SDS011;23184;51.902;12.836;2023-02-15T05:38:36;73.15;;;25.48;;
37299;SDS011;23184;51.902;12.836;2023-02-15T05:41:03;72.25;;;27.17;;
37299;SDS011;23184;51.902;12.836;2023-02-15T05:43:29;78.03;;;26.35;;
37299;SDS011;23184;51.902;12.836;2023-02-15T05:45:55;102.47;;;26.20;;
37299;SDS011;23184;51.902;12.836;2023-02-15T05:48:22;85.88;;;26.60;;
37299;SDS011;23184;51.902;12.836;2023-02-15T05:51:02;91.80;;;28.40;;
37299;SDS011;23184;51.902;12.836;2023-02-15T05:53:29;83.57;;;27.58;;
37299;SDS011;23184;51.902;12.836;2023-02-15T05:55:56;103.32;;;27.77;;
37299;SDS011;23184;51.902;12.836;2023-02-15T05:58:24;92.35;;;26.27;;
37299;SDS011;23184;51.902;12.836;2023-02-15T06:00:51;191.80;;;31.27;;
37299;SDS011;23184;51.902;12.836;2023-02-15T06:03:16;167.85;;;29.75;;
37299;SDS011;23184;51.902;12.836;2023-02-15T06:05:42;334.35;;;38.72;;
37299;SDS011;23184;51.902;12.836;2023-02-15T06:08:07;358.05;;;37.35;;
37299;SDS011;23184;51.902;12.836;2023-02-15T06:10:33;317.88;;;39.25;;
37299;SDS011;23184;51.902;12.836;2023-02-15T06:12:58;384.30;;;38.72;;
37299;SDS011;23184;51.902;12.836;2023-02-15T06:15:24;323.50;;;38.17;;
37299;SDS011;23184;51.902;12.836;2023-02-15T06:17:49;320.02;;;39.10;;
37299;SDS011;23184;51.902;12.836;2023-02-15T06:20:14;201.80;;;32.63;;
37299;SDS011;23184;51.902;12.836;2023-02-15T06:22:40;343.38;;;40.45;;
37299;SDS011;23184;51.902;12.836;2023-02-15T06:25:05;197.23;;;32.95;;
37299;SDS011;23184;51.902;12.836;2023-02-15T06:27:34;240.02;;;33.10;;
37299;SDS011;23184;51.902;12.836;2023-02-15T06:30:00;467.00;;;52.35;;
37299;SDS011;23184;51.902;12.836;2023-02-15T06:32:26;390.35;;;40.97;;
37299;SDS011;23184;51.902;12.836;2023-02-15T06:34:51;360.30;;;42.83;;
37299;SDS011;23184;51.902;12.836;2023-02-15T06:37:16;171.95;;;31.38;;
37299;SDS011;23184;51.902;12.836;2023-02-15T06:39:42;189.25;;;31.02;;
37299;SDS011;23184;51.902;12.836;2023-02-15T06:42:09;252.52;;;34.53;;
37299;SDS011;23184;51.902;12.836;2023-02-15T06:44:34;326.35;;;38.53;;
37299;SDS011;23184;51.902;12.836;2023-02-15T06:46:59;266.65;;;33.10;;
37299;SDS011;23184;51.902;12.836;2023-02-15T06:49:25;262.30;;;33.97;;
37299;SDS011;23184;51.902;12.836;2023-02-15T06:51:50;240.73;;;33.33;;
37299;SDS011;23184;51.902;12.836;2023-02-15T06:54:16;156.85;;;30.98;;
37299;SDS011;23184;51.902;12.836;2023-02-15T06:56:41;117.75;;;29.65;;
37299;SDS011;23184;51.902;12.836;2023-02-15T06:59:08;137.05;;;28.98;;
37299;SDS011;23184;51.902;12.836;2023-02-15T07:01:33;81.72;;;28.83;;
37299;SDS011;23184;51.902;12.836;2023-02-15T07:03:59;85.68;;;29.88;;
37299;SDS011;23184;51.902;12.836;2023-02-15T07:06:24;78.65;;;28.05;;
37299;SDS011;23184;51.902;12.836;2023-02-15T07:08:50;81.47;;;28.00;;
37299;SDS011;23184;51.902;12.836;2023-02-15T07:11:15;81.25;;;29.60;;
37299;SDS011;23184;51.902;12.836;2023-02-15T07:14:16;75.10;;;28.13;;
37299;SDS011;23184;51.902;12.836;2023-02-15T07:16:42;80.38;;;29.13;;
37299;SDS011;23184;51.902;12.836;2023-02-15T07:19:07;71.80;;;29.55;;
37299;SDS011;23184;51.902;12.836;2023-02-15T07:21:33;76.07;;;27.10;;
37299;SDS011;23184;51.902;12.836;2023-02-15T07:23:59;73.68;;;27.77;;
37299;SDS011;23184;51.902;12.836;2023-02-15T07:26:25;69.50;;;27.88;;
37299;SDS011;23184;51.902;12.836;2023-02-15T07:28:51;72.15;;;27.40;;
37299;SDS011;23184;51.902;12.836;2023-02-15T07:31:17;69.07;;;29.27;;
37299;SDS011;23184;51.902;12.836;2023-02-15T07:33:42;66.60;;;27.23;;
37299;SDS011;23184;51.902;12.836;2023-02-15T07:36:08;67.25;;;25.75;;
37299;SDS011;23184;51.902;12.836;2023-02-15T07:38:37;75.47;;;28.73;;
37299;SDS011;23184;51.902;12.836;2023-02-15T07:41:05;67.47;;;27.85;;
37299;SDS011;23184;51.902;12.836;2023-02-15T07:43:33;58.47;;;25.35;;
37299;SDS011;23184;51.902;12.836;2023-02-15T07:46:01;65.85;;;26.08;;
37299;SDS011;23184;51.902;12.836;2023-02-15T07:48:29;62.10;;;25.58;;
37299;SDS011;23184;51.902;12.836;2023-02-15T07:50:58;59.78;;;26.60;;
37299;SDS011;23184;51.902;12.836;2023-02-15T07:53:24;57.53;;;25.52;;
37299;SDS011;23184;51.902;12.836;2023-02-15T07:55:49;54.20;;;25.20;;
37299;SDS011;23184;51.902;12.836;2023-02-15T07:58:15;56.30;;;24.38;;
37299;SDS011;23184;51.902;12.836;2023-02-15T08:00:40;53.30;;;23.20;;
37299;SDS011;23184;51.902;12.836;2023-02-15T08:03:24;53.38;;;24.52;;
37299;SDS011;23184;51.902;12.836;2023-02-15T08:05:51;53.35;;;22.95;;
37299;SDS011;23184;51.902;12.836;2023-02-15T08:08:24;57.67;;;24.00;;
37299;SDS011;23184;51.902;12.836;2023-02-15T08:11:39;50.75;;;22.67;;
37299;SDS011;23184;51.902;12.836;2023-02-15T08:13:59;47.72;;;21.92;;
37299;SDS011;23184;51.902;12.836;2023-02-15T08:16:37;48.47;;;23.08;;
37299;SDS011;23184;51.902;12.836;2023-02-15T08:19:16;47.22;;;22.65;;
37299;SDS011;23184;51.902;12.836;2023-02-15T08:21:50;47.80;;;21.00;;
37299;SDS011;23184;51.902;12.836;2023-02-15T08:24:19;49.17;;;20.77;;
37299;SDS011;23184;51.902;12.836;2023-02-15T08:26:47;50.13;;;22.60;;
37299;SDS011;23184;51.902;12.836;2023-02-15T08:29:14;50.42;;;24.02;;
37299;SDS011;23184;51.902;12.836;2023-02-15T08:31:40;48.97;;;22.27;;
37299;SDS011;23184;51.902;12.836;2023-02-15T08:34:07;53.45;;;23.27;;
37299;SDS011;23184;51.902;12.836;2023-02-15T08:36:33;49.60;;;23.13;;
37299;SDS011;23184;51.902;12.836;2023-02-15T08:39:00;47.75;;;22.48;;
37299;SDS011;23184;51.902;12.836;2023-02-15T08:41:28;45.33;;;21.05;;
37299;SDS011;23184;51.902;12.836;2023-02-15T08:43:56;43.53;;;20.98;;
37299;SDS011;23184;51.902;12.836;2023-02-15T08:46:27;41.58;;;19.70;;
37299;SDS011;23184;51.902;12.836;2023-02-15T08:48:54;41.25;;;19.13;;
37299;SDS011;23184;51.902;12.836;2023-02-15T08:51:21;34.00;;;18.00;;
37299;SDS011;23184;51.902;12.836;2023-02-15T08:53:52;35.85;;;18.83;;
37299;SDS011;23184;51.902;12.836;2023-02-15T08:56:22;33.97;;;17.85;;
37299;SDS011;23184;51.902;12.836;2023-02-15T08:58:49;29.58;;;15.18;;
37299;SDS011;23184;51.902;12.836;2023-02-15T09:01:16;24.40;;;13.07;;
37299;SDS011;23184;51.902;12.836;2023-02-15T09:03:45;25.02;;;13.45;;
37299;SDS011;23184;51.902;12.836;2023-02-15T09:06:12;34.05;;;16.13;;
37299;SDS011;23184;51.902;12.836;2023-02-15T09:08:38;44.33;;;18.25;;
37299;SDS011;23184;51.902;12.836;2023-02-15T09:11:08;46.03;;;19.45;;
37299;SDS011;23184;51.902;12.836;2023-02-15T09:13:36;34.15;;;16.85;;
37299;SDS011;23184;51.902;12.836;2023-02-15T09:16:04;58.55;;;21.13;;
37299;SDS011;23184;51.902;12.836;2023-02-15T09:18:31;73.55;;;22.75;;
37299;SDS011;23184;51.902;12.836;2023-02-15T09:21:04;57.38;;;19.90;;
37299;SDS011;23184;51.902;12.836;2023-02-15T09:26:04;32.42;;;17.45;;
37299;SDS011;23184;51.902;12.836;2023-02-15T09:28:31;30.83;;;15.70;;
37299;SDS011;23184;51.902;12.836;2023-02-15T09:31:03;35.35;;;17.30;;
37299;SDS011;23184;51.902;12.836;2023-02-15T09:33:40;48.97;;;21.42;;
37299;SDS011;23184;51.902;12.836;2023-02-15T09:36:14;44.75;;;21.45;;
37299;SDS011;23184;51.902;12.836;2023-02-15T09:38:47;22.98;;;13.98;;
37299;SDS011;23184;51.902;12.836;2023-02-15T09:50:26;26.48;;;15.13;;
37299;SDS011;23184;51.902;12.836;2023-02-15T09:55:57;21.85;;;12.48;;
37299;SDS011;23184;51.902;12.836;2023-02-15T10:01:35;22.10;;;13.00;;
37299;SDS011;23184;51.902;12.836;2023-02-15T10:09:50;32.58;;;16.10;;
37299;SDS011;23184;51.902;12.836;2023-02-15T10:12:42;27.25;;;13.82;;
37299;SDS011;23184;51.902;12.836;2023-02-15T10:18:26;22.90;;;13.43;;
37299;SDS011;23184;51.902;12.836;2023-02-15T10:23:43;17.45;;;11.43;;
37299;SDS011;23184;51.902;12.836;2023-02-15T10:26:38;27.90;;;13.65;;
37299;SDS011;23184;51.902;12.836;2023-02-15T10:29:10;22.05;;;13.02;;
37299;SDS011;23184;51.902;12.836;2023-02-15T10:32:06;20.80;;;13.27;;
37299;SDS011;23184;51.902;12.836;2023-02-15T10:35:00;22.88;;;13.35;;
37299;SDS011;23184;51.902;12.836;2023-02-15T10:40:25;22.17;;;13.73;;
37299;SDS011;23184;51.902;12.836;2023-02-15T10:43:04;24.20;;;13.83;;
37299;SDS011;23184;51.902;12.836;2023-02-15T10:45:40;22.92;;;14.05;;
37299;SDS011;23184;51.902;12.836;2023-02-15T10:51:39;24.63;;;13.00;;
37299;SDS011;23184;51.902;12.836;2023-02-15T11:02:42;22.92;;;13.93;;
37299;SDS011;23184;51.902;12.836;2023-02-15T11:05:41;24.53;;;13.67;;
37299;SDS011;23184;51.902;12.836;2023-02-15T11:08:23;23.85;;;13.80;;
37299;SDS011;23184;51.902;12.836;2023-02-15T11:10:52;23.85;;;14.05;;
37299;SDS011;23184;51.902;12.836;2023-02-15T11:13:22;27.35;;;14.10;;
37299;SDS011;23184;51.902;12.836;2023-02-15T11:15:53;23.33;;;12.90;;
37299;SDS011;23184;51.902;12.836;2023-02-15T11:18:32;23.42;;;13.77;;
37299;SDS011;23184;51.902;12.836;2023-02-15T11:21:04;30.15;;;15.75;;
37299;SDS011;23184;51.902;12.836;2023-02-15T11:23:39;33.10;;;16.52;;
37299;SDS011;23184;51.902;12.836;2023-02-15T11:26:31;24.85;;;13.68;;
37299;SDS011;23184;51.902;12.836;2023-02-15T11:29:05;28.38;;;15.52;;
37299;SDS011;23184;51.902;12.836;2023-02-15T11:31:59;24.45;;;14.18;;
37299;SDS011;23184;51.902;12.836;2023-02-15T11:36:59;21.92;;;13.27;;
37299;SDS011;23184;51.902;12.836;2023-02-15T11:39:35;21.08;;;12.93;;
37299;SDS011;23184;51.902;12.836;2023-02-15T11:42:02;25.40;;;13.73;;
37299;SDS011;23184;51.902;12.836;2023-02-15T11:44:35;22.80;;;13.25;;
37299;SDS011;23184;51.902;12.836;2023-02-15T11:47:07;21.35;;;13.32;;
37299;SDS011;23184;51.902;12.836;2023-02-15T11:49:35;22.85;;;13.20;;
37299;SDS011;23184;51.902;12.836;2023-02-15T11:52:03;22.70;;;13.43;;
37299;SDS011;23184;51.902;12.836;2023-02-15T11:54:32;21.58;;;13.20;;
37299;SDS011;23184;51.902;12.836;2023-02-15T11:59:57;19.50;;;11.88;;
37299;SDS011;23184;51.902;12.836;2023-02-15T12:02:28;21.08;;;12.25;;
37299;SDS011;23184;51.902;12.836;2023-02-15T12:04:58;22.50;;;12.90;;
37299;SDS011;23184;51.902;12.836;2023-02-15T12:07:34;35.95;;;14.93;;
37299;SDS011;23184;51.902;12.836;2023-02-15T12:13:08;20.52;;;12.65;;
37299;SDS011;23184;51.902;12.836;2023-02-15T12:15:40;22.10;;;13.45;;
37299;SDS011;23184;51.902;12.836;2023-02-15T12:18:17;23.95;;;13.38;;
37299;SDS011;23184;51.902;12.836;2023-02-15T12:21:00;18.75;;;11.70;;
37299;SDS011;23184;51.902;12.836;2023-02-15T12:23:59;19.98;;;12.13;;
37299;SDS011;23184;51.902;12.836;2023-02-15T12:26:32;20.23;;;11.80;;
37299;SDS011;23184;51.902;12.836;2023-02-15T12:29:01;22.70;;;12.55;;
37299;SDS011;23184;51.902;12.836;2023-02-15T12:31:40;23.00;;;13.00;;
37299;SDS011;23184;51.902;12.836;2023-02-15T12:34:12;24.05;;;13.20;;
37299;SDS011;23184;51.902;12.836;2023-02-15T12:36:47;18.20;;;10.95;;
37299;SDS011;23184;51.902;12.836;2023-02-15T12:39:21;22.15;;;12.93;;
37299;SDS011;23184;51.902;12.836;2023-02-15T12:41:57;18.52;;;12.05;;
37299;SDS011;23184;51.902;12.836;2023-02-15T12:44:32;17.48;;;10.52;;
37299;SDS011;23184;51.902;12.836;2023-02-15T12:47:00;18.88;;;10.60;;
37299;SDS011;23184;51.902;12.836;2023-02-15T12:49:27;17.02;;;10.25;;
37299;SDS011;23184;51.902;12.836;2023-02-15T12:51:58;18.90;;;10.27;;
37299;SDS011;23184;51.902;12.836;2023-02-15T12:54:35;15.57;;;9.63;;
37299;SDS011;23184;51.902;12.836;2023-02-15T12:57:19;15.48;;;10.27;;
37299;SDS011;23184;51.902;12.836;2023-02-15T13:02:50;14.55;;;8.20;;
37299;SDS011;23184;51.902;12.836;2023-02-15T13:05:29;13.25;;;8.55;;
37299;SDS011;23184;51.902;12.836;2023-02-15T13:08:17;12.38;;;8.15;;
37299;SDS011;23184;51.902;12.836;2023-02-15T13:11:02;14.90;;;7.28;;
37299;SDS011;23184;51.902;12.836;2023-02-15T13:13:35;12.98;;;7.75;;
37299;SDS011;23184;51.902;12.836;2023-02-15T13:16:15;12.93;;;7.32;;
37299;SDS011;23184;51.902;12.836;2023-02-15T13:21:18;12.95;;;7.78;;
37299;SDS011;23184;51.902;12.836;2023-02-15T13:23:47;16.83;;;8.80;;
37299;SDS011;23184;51.902;12.836;2023-02-15T13:26:18;15.80;;;8.93;;
37299;SDS011;23184;51.902;12.836;2023-02-15T13:28:47;11.40;;;7.45;;
37299;SDS011;23184;51.902;12.836;2023-02-15T13:31:20;29.10;;;14.25;;
37299;SDS011;23184;51.902;12.836;2023-02-15T13:33:50;20.45;;;11.05;;
37299;SDS011;23184;51.902;12.836;2023-02-15T13:39:26;18.75;;;10.25;;
37299;SDS011;23184;51.902;12.836;2023-02-15T13:41:57;19.02;;;8.90;;
37299;SDS011;23184;51.902;12.836;2023-02-15T13:52:42;16.17;;;9.75;;
37299;SDS011;23184;51.902;12.836;2023-02-15T13:55:25;12.07;;;7.85;;
37299;SDS011;23184;51.902;12.836;2023-02-15T14:06:28;17.33;;;10.27;;
37299;SDS011;23184;51.902;12.836;2023-02-15T14:09:18;12.75;;;8.98;;
37299;SDS011;23184;51.902;12.836;2023-02-15T14:15:19;12.88;;;8.30;;
37299;SDS011;23184;51.902;12.836;2023-02-15T14:18:04;14.40;;;8.90;;
37299;SDS011;23184;51.902;12.836;2023-02-15T14:20:49;12.40;;;8.77;;
37299;SDS011;23184;51.902;12.836;2023-02-15T14:23:35;11.95;;;8.20;;
37299;SDS011;23184;51.902;12.836;2023-02-15T14:26:12;13.35;;;8.43;;
37299;SDS011;23184;51.902;12.836;2023-02-15T14:32:20;12.50;;;8.68;;
37299;SDS011;23184;51.902;12.836;2023-02-15T14:34:56;10.90;;;7.75;;
37299;SDS011;23184;51.902;12.836;2023-02-15T14:43:43;10.15;;;6.68;;
37299;SDS011;23184;51.902;12.836;2023-02-15T14:49:12;6.05;;;3.90;;
37299;SDS011;23184;51.902;12.836;2023-02-15T14:56:42;3.28;;;2.72;;
37299;SDS011;23184;51.902;12.836;2023-02-15T14:59:19;4.20;;;2.80;;
37299;SDS011;23184;51.902;12.836;2023-02-15T15:01:54;6.53;;;2.80;;
37299;SDS011;23184;51.902;12.836;2023-02-15T15:04:31;8.18;;;3.95;;
37299;SDS011;23184;51.902;12.836;2023-02-15T15:07:02;7.53;;;4.72;;
37299;SDS011;23184;51.902;12.836;2023-02-15T15:12:15;10.82;;;6.10;;
37299;SDS011;23184;51.902;12.836;2023-02-15T15:14:59;12.38;;;5.97;;
37299;SDS011;23184;51.902;12.836;2023-02-15T15:20:44;9.18;;;6.43;;
37299;SDS011;23184;51.902;12.836;2023-02-15T15:26:01;13.40;;;6.07;;
37299;SDS011;23184;51.902;12.836;2023-02-15T15:31:20;8.60;;;5.80;;
37299;SDS011;23184;51.902;12.836;2023-02-15T15:40:19;9.83;;;4.57;;
37299;SDS011;23184;51.902;12.836;2023-02-15T15:48:03;7.75;;;4.85;;
37299;SDS011;23184;51.902;12.836;2023-02-15T15:50:51;8.57;;;4.10;;
37299;SDS011;23184;51.902;12.836;2023-02-15T15:53:20;7.82;;;4.00;;
37299;SDS011;23184;51.902;12.836;2023-02-15T15:55:48;5.28;;;3.55;;
37299;SDS011;23184;51.902;12.836;2023-02-15T15:58:19;8.35;;;3.70;;
37299;SDS011;23184;51.902;12.836;2023-02-15T16:00:49;9.93;;;5.03;;
37299;SDS011;23184;51.902;12.836;2023-02-15T16:03:31;9.00;;;5.75;;
37299;SDS011;23184;51.902;12.836;2023-02-15T16:05:56;12.75;;;6.80;;
37299;SDS011;23184;51.902;12.836;2023-02-15T16:08:25;16.52;;;7.40;;
37299;SDS011;23184;51.902;12.836;2023-02-15T16:10:55;11.05;;;6.72;;
37299;SDS011;23184;51.902;12.836;2023-02-15T16:13:22;11.02;;;6.85;;
37299;SDS011;23184;51.902;12.836;2023-02-15T16:15:52;13.23;;;7.32;;
37299;SDS011;23184;51.902;12.836;2023-02-15T16:18:21;10.65;;;6.88;;
37299;SDS011;23184;51.902;12.836;2023-02-15T16:20:50;12.88;;;7.13;;
37299;SDS011;23184;51.902;12.836;2023-02-15T16:26:18;15.40;;;7.82;;
37299;SDS011;23184;51.902;12.836;2023-02-15T16:29:15;13.32;;;7.40;;
37299;SDS011;23184;51.902;12.836;2023-02-15T16:31:43;12.85;;;7.10;;
37299;SDS011;23184;51.902;12.836;2023-02-15T16:34:21;13.25;;;7.22;;
37299;SDS011;23184;51.902;12.836;2023-02-15T16:36:46;12.60;;;7.70;;
37299;SDS011;23184;51.902;12.836;2023-02-15T16:39:19;13.70;;;9.07;;
37299;SDS011;23184;51.902;12.836;2023-02-15T16:41:45;14.18;;;7.53;;
37299;SDS011;23184;51.902;12.836;2023-02-15T16:44:15;14.07;;;8.02;;
37299;SDS011;23184;51.902;12.836;2023-02-15T16:46:45;14.23;;;8.18;;
37299;SDS011;23184;51.902;12.836;2023-02-15T16:49:15;14.20;;;7.68;;
37299;SDS011;23184;51.902;12.836;2023-02-15T16:51:43;12.40;;;6.93;;
37299;SDS011;23184;51.902;12.836;2023-02-15T16:54:14;13.00;;;7.15;;
37299;SDS011;23184;51.902;12.836;2023-02-15T16:56:43;12.95;;;6.70;;
37299;SDS011;23184;51.902;12.836;2023-02-15T16:59:16;13.45;;;6.85;;
37299;SDS011;23184;51.902;12.836;2023-02-15T17:09:40;11.45;;;6.68;;
37299;SDS011;23184;51.902;12.836;2023-02-15T17:12:43;14.30;;;6.68;;
37299;SDS011;23184;51.902;12.836;2023-02-15T17:20:33;11.68;;;6.20;;
37299;SDS011;23184;51.902;12.836;2023-02-15T17:23:03;10.05;;;5.97;;